Time;durP1;ratioP1;P1;durP2;ratioP2;P2;SDS_P1;SDS_P2;PMS_P1;PMS_P2;Temp;Humidity;BMP_temperature;BMP_pressure;BME280_temperature;BME280_humidity;BME280_pressure;Samples;Min_cycle;Max_cycle;Signal;HPM_P1;HPM_P2
2021/07/14 00:00:27;;;;;;;6.75;4.93;;;;;;;15.07;89.44;95856.31;5011472;28;20072;-73
2021/07/14 00:02:54;;;;;;;8.95;5.32;;;;;;;15.16;89.47;95850.63;5011733;28;20054;-72
2021/07/14 00:05:23;;;;;;;9.80;4.82;;;;;;;15.20;89.58;95859.75;5009430;28;20050;-72
2021/07/14 00:07:51;;;;;;;9.00;5.30;;;;;;;15.24;89.73;95855.09;5011548;28;20501;-74
2021/07/14 00:10:20;;;;;;;8.10;4.93;;;;;;;15.25;90.06;95855.91;5011486;28;20049;-73
2021/07/14 00:12:54;;;;;;;6.90;4.95;;;;;;;15.21;90.08;95864.06;5011348;28;20410;-73
2021/07/14 00:23:31;;;;;;;9.88;5.50;;;;;;;15.13;90.04;95793.75;5011259;28;20544;-72
2021/07/14 00:25:57;;;;;;;10.98;5.65;;;;;;;15.13;90.05;95774.56;5011503;28;20124;-72
2021/07/14 00:28:25;;;;;;;8.88;5.35;;;;;;;15.03;89.89;95795.13;5010932;28;20068;-72
2021/07/14 00:30:54;;;;;;;9.52;5.50;;;;;;;15.01;90.24;95796.66;5011490;28;20049;-72
2021/07/14 00:33:21;;;;;;;9.68;5.85;;;;;;;15.06;90.17;95788.13;5011084;28;20517;-72
2021/07/14 00:35:48;;;;;;;7.80;5.25;;;;;;;15.09;90.22;95768.22;5010779;28;20042;-72
2021/07/14 00:38:14;;;;;;;12.98;5.85;;;;;;;15.10;90.21;95745.91;5010873;28;20057;-72
2021/07/14 00:40:42;;;;;;;11.10;6.32;;;;;;;15.13;90.36;95722.44;5013425;28;20524;-72
2021/07/14 00:43:09;;;;;;;10.07;5.13;;;;;;;15.16;90.04;95726.44;5014848;28;20042;-72
2021/07/14 00:45:35;;;;;;;10.38;5.55;;;;;;;15.20;89.46;95761.00;5015395;28;20509;-72
2021/07/14 00:48:03;;;;;;;5.60;4.03;;;;;;;15.17;88.29;95797.38;5015216;28;20049;-71
2021/07/14 00:50:31;;;;;;;10.20;5.35;;;;;;;15.08;88.50;95799.53;5015307;28;20046;-72
2021/07/14 00:52:58;;;;;;;7.90;4.70;;;;;;;15.04;88.95;95815.13;5015345;28;20057;-72
2021/07/14 00:55:24;;;;;;;10.95;5.72;;;;;;;15.01;89.44;95830.34;5014330;28;20501;-72
2021/07/14 00:57:52;;;;;;;9.10;5.25;;;;;;;15.00;89.54;95817.78;5014962;28;20521;-74
2021/07/14 01:00:19;;;;;;;7.47;5.25;;;;;;;15.01;89.75;95813.09;5014626;28;20057;-72
2021/07/14 01:02:45;;;;;;;8.85;5.65;;;;;;;15.04;89.93;95823.34;5015072;28;20070;-72
2021/07/14 01:05:16;;;;;;;8.48;5.20;;;;;;;15.11;89.86;95826.25;5014353;28;20061;-73
2021/07/14 01:07:53;;;;;;;11.15;5.28;;;;;;;15.18;89.71;95845.56;5014829;28;20049;-73
2021/07/14 01:10:24;;;;;;;7.40;4.90;;;;;;;15.21;89.68;95842.13;5014566;28;20053;-72
2021/07/14 01:13:02;;;;;;;7.28;4.38;;;;;;;15.25;89.34;95837.50;5014736;28;20046;-75
2021/07/14 01:15:34;;;;;;;6.55;4.10;;;;;;;15.27;89.02;95846.16;5014443;28;20041;-72
2021/07/14 01:18:04;;;;;;;6.82;3.97;;;;;;;15.25;89.11;95848.47;5014763;28;20505;-74
2021/07/14 01:20:48;;;;;;;7.70;4.43;;;;;;;15.22;89.16;95846.44;5014423;28;20041;-73
2021/07/14 01:23:19;;;;;;;11.35;4.60;;;;;;;15.21;89.46;95839.38;5013545;28;20378;-72
2021/07/14 01:26:07;;;;;;;4.90;4.10;;;;;;;15.23;89.35;95831.56;5014506;28;20046;-72
2021/07/14 01:28:37;;;;;;;7.35;3.90;;;;;;;15.23;88.83;95828.03;5014474;28;20037;-72
2021/07/14 01:31:05;;;;;;;5.72;3.58;;;;;;;15.23;88.48;95822.56;5014141;28;20053;-73
2021/07/14 01:33:34;;;;;;;5.22;3.85;;;;;;;15.24;88.49;95822.19;5014297;28;20524;-72
2021/07/14 01:36:04;;;;;;;9.05;4.68;;;;;;;15.26;88.38;95814.41;5013950;28;20041;-73
2021/07/14 01:38:34;;;;;;;7.90;4.18;;;;;;;15.28;87.59;95823.06;5014297;28;20042;-72
2021/07/14 01:41:02;;;;;;;6.00;3.42;;;;;;;15.27;86.74;95826.97;5014228;28;20509;-72
2021/07/14 01:43:34;;;;;;;5.55;3.50;;;;;;;15.23;86.72;95809.63;5013879;28;20052;-73
2021/07/14 01:46:03;;;;;;;6.53;3.83;;;;;;;15.21;87.06;95817.44;5014352;28;20057;-72
2021/07/14 01:48:32;;;;;;;6.32;4.13;;;;;;;15.22;87.46;95816.28;5013872;28;20386;-72
2021/07/14 01:50:59;;;;;;;6.07;4.43;;;;;;;15.24;87.75;95783.78;5013929;28;20049;-72
2021/07/14 01:53:27;;;;;;;8.85;4.05;;;;;;;15.29;87.32;95771.72;5013455;28;20045;-72
2021/07/14 01:55:55;;;;;;;9.70;3.90;;;;;;;15.29;87.32;95758.81;5013916;28;20057;-72
2021/07/14 01:58:27;;;;;;;8.00;4.78;;;;;;;15.30;87.21;95754.13;5013522;28;20050;-72
2021/07/14 02:00:55;;;;;;;6.60;4.10;;;;;;;15.26;87.41;95751.31;5013826;28;20049;-72
2021/07/14 02:03:41;;;;;;;5.35;4.18;;;;;;;15.29;87.75;95755.28;5013498;28;21046;-72
2021/07/14 02:06:08;;;;;;;9.13;4.53;;;;;;;15.24;87.71;95745.38;5013060;28;20050;-71
2021/07/14 02:08:37;;;;;;;6.55;4.43;;;;;;;15.21;88.09;95740.66;5014003;28;20053;-72
2021/07/14 02:11:04;;;;;;;9.30;4.95;;;;;;;15.23;88.13;95738.31;5013336;28;20073;-71
2021/07/14 02:13:32;;;;;;;7.78;4.22;;;;;;;15.22;87.92;95739.47;5013703;28;20049;-73
2021/07/14 02:16:01;;;;;;;7.10;4.30;;;;;;;15.16;87.81;95737.41;5013335;28;20497;-73
2021/07/14 02:18:36;;;;;;;12.05;4.68;;;;;;;15.16;88.13;95740.94;5013529;28;20049;-72
2021/07/14 02:21:02;;;;;;;8.93;4.85;;;;;;;15.20;88.14;95732.78;5013256;28;20050;-71
2021/07/14 02:23:29;;;;;;;7.22;4.15;;;;;;;15.24;87.58;95720.69;5013383;28;20405;-72
2021/07/14 02:25:55;;;;;;;9.80;4.50;;;;;;;15.24;87.52;95728.94;5013606;28;20046;-73
2021/07/14 02:28:22;;;;;;;7.18;4.22;;;;;;;15.23;87.46;95735.56;5013147;28;20057;-72
2021/07/14 02:30:48;;;;;;;7.40;4.28;;;;;;;15.20;87.82;95743.75;5013330;28;20069;-72
2021/07/14 02:33:15;;;;;;;6.25;4.38;;;;;;;15.18;87.70;95741.34;5012969;28;20453;-72
2021/07/14 02:35:46;;;;;;;7.63;4.53;;;;;;;15.18;87.91;95746.84;5012847;28;20041;-72
2021/07/14 02:38:15;;;;;;;10.32;4.50;;;;;;;15.19;87.57;95753.13;5012778;28;20069;-72
2021/07/14 02:40:46;;;;;;;6.60;4.18;;;;;;;15.20;87.10;95744.53;5013218;28;20042;-72
2021/07/14 02:43:15;;;;;;;8.82;4.10;;;;;;;15.20;86.32;95728.09;5012844;28;20053;-73
2021/07/14 02:45:47;;;;;;;5.75;4.28;;;;;;;15.18;86.09;95730.38;5012837;28;20485;-72
2021/07/14 02:48:14;;;;;;;5.18;3.63;;;;;;;15.16;86.49;95729.97;5012694;28;20053;-72
2021/07/14 02:50:43;;;;;;;5.25;4.03;;;;;;;15.19;86.86;95753.13;5013169;28;20382;-74
2021/07/14 02:53:14;;;;;;;8.45;3.92;;;;;;;15.12;86.99;95756.53;5012562;28;20050;-72
2021/07/14 02:55:44;;;;;;;6.00;3.80;;;;;;;14.99;87.11;95766.06;5012903;28;20046;-72
2021/07/14 02:58:12;;;;;;;7.03;4.03;;;;;;;14.88;87.88;95779.56;5012522;28;20050;-71
2021/07/14 03:00:40;;;;;;;7.30;4.60;;;;;;;14.85;88.25;95783.78;5012885;28;20117;-71
2021/07/14 03:03:08;;;;;;;9.32;4.90;;;;;;;14.87;88.79;95778.72;5011766;28;20053;-72
2021/07/14 03:05:35;;;;;;;8.68;4.75;;;;;;;14.90;88.23;95769.00;5012515;28;20117;-72
2021/07/14 03:08:05;;;;;;;9.45;4.60;;;;;;;14.93;88.04;95764.75;5012826;28;20042;-71
2021/07/14 03:10:33;;;;;;;7.82;4.80;;;;;;;14.91;88.07;95745.13;5012560;28;20050;-72
2021/07/14 03:13:03;;;;;;;7.85;5.05;;;;;;;14.99;88.26;95731.22;5012520;28;20050;-72
2021/07/14 03:15:30;;;;;;;9.77;4.63;;;;;;;15.01;88.01;95737.13;5012309;28;20132;-72
2021/07/14 03:17:58;;;;;;;7.63;4.28;;;;;;;14.99;88.04;95739.44;5012754;28;20064;-74
2021/07/14 03:20:26;;;;;;;7.35;5.05;;;;;;;15.00;88.17;95760.22;5012375;28;20157;-73
2021/07/14 03:22:53;;;;;;;5.72;4.10;;;;;;;15.02;88.01;95755.16;5012446;28;20045;-74
2021/07/14 03:25:22;;;;;;;9.18;4.70;;;;;;;15.05;87.51;95764.63;5011910;28;20057;-72
2021/07/14 03:27:51;;;;;;;9.02;4.55;;;;;;;15.05;87.72;95775.59;5012213;28;20125;-74
2021/07/14 03:30:20;;;;;;;9.52;5.43;;;;;;;15.04;87.96;95782.22;5011967;28;20049;-74
2021/07/14 03:32:47;;;;;;;8.48;4.38;;;;;;;15.08;88.43;95777.59;5012359;28;20564;-72
2021/07/14 03:35:17;;;;;;;9.75;5.10;;;;;;;15.13;87.88;95774.56;5011368;28;20041;-74
2021/07/14 03:37:48;;;;;;;11.40;4.53;;;;;;;15.08;87.04;95772.09;5011948;28;20046;-72
2021/07/14 03:40:15;;;;;;;7.72;4.13;;;;;;;15.08;87.04;95775.63;5011628;28;20520;-72
2021/07/14 03:42:44;;;;;;;7.82;4.20;;;;;;;15.06;87.39;95780.69;5012068;28;20457;-72
2021/07/14 03:45:11;;;;;;;7.72;3.60;;;;;;;15.07;87.49;95800.69;5011713;28;20049;-74
2021/07/14 03:47:41;;;;;;;11.75;5.35;;;;;;;15.06;87.67;95805.38;5011960;28;20053;-74
2021/07/14 03:50:09;;;;;;;8.32;3.80;;;;;;;14.99;87.34;95807.97;5011477;28;20528;-74
2021/07/14 03:52:37;;;;;;;6.97;4.60;;;;;;;14.95;87.38;95809.06;5010953;28;20504;-74
2021/07/14 03:55:07;;;;;;;5.93;3.60;;;;;;;14.91;87.65;95792.53;5011581;28;20057;-73
2021/07/14 03:57:34;;;;;;;7.45;3.60;;;;;;;14.88;87.67;95804.22;5010929;28;20053;-74
2021/07/14 04:00:02;;;;;;;10.63;3.70;;;;;;;14.88;87.86;95799.53;5012165;28;20046;-74
2021/07/14 04:02:30;;;;;;;10.30;4.47;;;;;;;14.93;87.80;95795.72;5010623;28;20046;-73
2021/07/14 04:04:56;;;;;;;11.13;3.80;;;;;;;14.97;88.21;95787.53;5011034;28;20053;-74
2021/07/14 04:07:26;;;;;;;13.95;3.75;;;;;;;15.00;88.14;95781.34;5010457;28;20077;-73
2021/07/14 04:09:53;;;;;;;6.25;3.88;;;;;;;14.99;87.98;95786.03;5011070;28;20050;-73
2021/07/14 04:12:20;;;;;;;9.35;4.00;;;;;;;15.03;88.51;95795.13;5010584;28;20398;-74
2021/07/14 04:14:48;;;;;;;8.00;4.20;;;;;;;15.08;88.48;95796.78;5011097;28;20042;-74
2021/07/14 04:17:16;;;;;;;11.85;4.60;;;;;;;15.13;88.30;95804.72;5011018;28;20049;-74
2021/07/14 04:19:42;;;;;;;7.28;3.97;;;;;;;15.15;87.98;95791.47;5010392;28;20419;-74
2021/07/14 04:22:11;;;;;;;10.23;3.90;;;;;;;15.16;88.08;95787.56;5011020;28;20046;-73
2021/07/14 04:24:38;;;;;;;11.88;4.18;;;;;;;15.14;87.90;95781.66;5010426;28;20405;-73
2021/07/14 04:27:05;;;;;;;7.78;3.90;;;;;;;15.13;88.14;95782.78;5010854;28;20046;-73
2021/07/14 04:29:32;;;;;;;8.75;3.90;;;;;;;15.16;87.70;95792.25;5010913;28;20049;-73
2021/07/14 04:31:59;;;;;;;8.48;4.65;;;;;;;15.18;87.66;95801.69;5010984;28;20428;-73
2021/07/14 04:34:27;;;;;;;8.63;4.53;;;;;;;15.19;87.75;95795.06;5009880;28;20056;-74
2021/07/14 04:36:53;;;;;;;8.95;4.57;;;;;;;15.19;87.78;95784.09;5010683;28;20050;-73
2021/07/14 04:39:20;;;;;;;8.40;4.18;;;;;;;15.21;88.06;95776.28;5010296;28;20049;-74
2021/07/14 04:41:47;;;;;;;8.15;4.13;;;;;;;15.24;87.56;95783.78;5011328;28;20527;-73
2021/07/14 04:44:18;;;;;;;6.18;3.90;;;;;;;15.21;86.82;95789.22;5011200;28;20042;-74
2021/07/14 04:46:45;;;;;;;4.70;3.50;;;;;;;15.16;86.89;95782.06;4991881;28;20047;-73
2021/07/14 04:49:11;;;;;;;4.78;3.08;;;;;;;15.17;86.54;95783.66;4991398;28;20038;-73
2021/07/14 04:51:39;;;;;;;6.25;3.03;;;;;;;15.15;85.78;95769.53;4991696;28;20109;-73
2021/07/14 04:54:06;;;;;;;10.95;3.60;;;;;;;15.14;86.38;95756.97;4991227;28;20069;-74
2021/07/14 04:56:34;;;;;;;11.00;3.80;;;;;;;15.14;86.56;95746.00;4991420;28;20050;-74
2021/07/14 04:59:00;;;;;;;7.10;3.30;;;;;;;15.18;86.43;95751.53;4991612;28;20074;-75
2021/07/14 05:01:27;;;;;;;6.43;3.63;;;;;;;15.20;86.42;95760.22;4991157;28;20046;-74
2021/07/14 05:03:53;;;;;;;4.18;2.75;;;;;;;15.22;86.16;95753.19;4992099;28;20057;-74
2021/07/14 05:06:20;;;;;;;10.98;3.35;;;;;;;15.17;85.74;95750.75;4990999;28;20073;-74
2021/07/14 05:08:47;;;;;;;10.05;3.42;;;;;;;15.17;85.34;95755.44;4991162;28;20046;-74
2021/07/14 05:11:14;;;;;;;8.95;3.20;;;;;;;15.17;85.71;95760.91;4991149;28;20050;-74
2021/07/14 05:13:41;;;;;;;8.38;3.13;;;;;;;15.17;85.75;95761.72;4991352;28;20567;-74
2021/07/14 05:16:08;;;;;;;5.40;2.70;;;;;;;15.12;85.08;95748.28;5006248;28;20050;-74
2021/07/14 05:18:35;;;;;;;6.60;2.55;;;;;;;15.10;84.84;95739.66;5011232;28;20087;-74
2021/07/14 05:21:01;;;;;;;3.53;2.20;;;;;;;15.02;84.25;95738.69;5010986;28;20053;-75
2021/07/14 05:23:28;;;;;;;7.57;2.83;;;;;;;14.98;84.64;95737.03;5010594;28;20046;-73
2021/07/14 05:25:56;;;;;;;6.80;2.75;;;;;;;14.97;85.45;95729.97;5011590;28;20054;-74
2021/07/14 05:28:22;;;;;;;6.40;2.42;;;;;;;14.94;85.46;95744.41;5014152;28;20050;-74
2021/07/14 05:30:49;;;;;;;5.60;2.30;;;;;;;14.94;85.42;95753.44;5014636;28;20052;-74
2021/07/14 05:33:17;;;;;;;6.97;2.15;;;;;;;14.94;85.23;95763.59;5014185;28;20053;-74
2021/07/14 05:35:43;;;;;;;3.58;2.13;;;;;;;14.96;84.13;95761.28;5013703;28;20578;-73
2021/07/14 05:38:10;;;;;;;5.85;2.22;;;;;;;14.95;84.24;95756.97;5013466;28;20521;-74
2021/07/14 05:40:36;;;;;;;4.05;2.17;;;;;;;14.92;84.42;95743.97;5014389;28;20045;-74
2021/07/14 05:43:04;;;;;;;5.72;2.40;;;;;;;14.85;84.44;95733.66;5013851;28;20053;-73
2021/07/14 05:45:30;;;;;;;3.70;2.22;;;;;;;14.74;84.05;95738.91;5014092;28;20042;-74
2021/07/14 05:47:58;;;;;;;6.13;2.17;;;;;;;14.69;84.70;95747.41;5014343;28;20049;-74
2021/07/14 05:50:24;;;;;;;6.03;2.15;;;;;;;14.71;84.99;95760.75;5013764;28;20104;-74
2021/07/14 05:52:51;;;;;;;5.53;2.65;;;;;;;14.72;85.77;95760.41;5014026;28;20042;-74
2021/07/14 05:55:17;;;;;;;5.28;2.53;;;;;;;14.69;85.11;95761.13;5013609;28;20046;-73
2021/07/14 05:57:44;;;;;;;7.82;2.13;;;;;;;14.75;85.48;95767.91;5013940;28;20054;-73
2021/07/14 06:00:13;;;;;;;5.18;2.40;;;;;;;14.77;85.42;95754.66;5013683;28;20069;-74
2021/07/14 06:02:39;;;;;;;3.45;2.25;;;;;;;14.82;85.72;95746.13;5013882;28;20057;-74
2021/07/14 06:05:07;;;;;;;7.63;2.38;;;;;;;14.82;85.85;95757.09;5012956;28;20045;-74
2021/07/14 06:07:33;;;;;;;5.90;2.70;;;;;;;14.88;85.71;95755.66;5013742;28;20042;-73
2021/07/14 06:10:00;;;;;;;7.60;2.42;;;;;;;14.93;85.59;95764.75;5013763;28;20050;-73
2021/07/14 06:12:26;;;;;;;6.30;2.58;;;;;;;14.92;85.79;95774.13;5013254;28;20049;-74
2021/07/14 06:14:53;;;;;;;4.80;2.40;;;;;;;14.91;85.18;95780.75;5013728;28;20057;-73
2021/07/14 06:17:21;;;;;;;4.57;2.53;;;;;;;14.97;85.16;95790.28;5013076;28;20049;-73
2021/07/14 06:19:47;;;;;;;4.95;2.30;;;;;;;15.04;84.95;95785.75;5013620;28;20045;-73
2021/07/14 06:22:14;;;;;;;4.88;2.70;;;;;;;15.09;84.38;95792.91;5013153;28;20053;-74
2021/07/14 06:24:40;;;;;;;7.25;2.17;;;;;;;15.09;84.48;95784.69;5013683;28;20054;-74
2021/07/14 06:27:07;;;;;;;3.67;2.17;;;;;;;15.10;84.27;95780.78;5013038;28;20037;-74
2021/07/14 06:29:34;;;;;;;6.85;2.22;;;;;;;15.14;84.29;95782.44;5013570;28;20049;-73
2021/07/14 06:32:00;;;;;;;4.25;2.10;;;;;;;15.14;84.57;95781.66;5013254;28;20432;-74
2021/07/14 06:34:28;;;;;;;4.80;2.58;;;;;;;15.17;84.32;95797.38;5012648;28;20037;-74
2021/07/14 06:36:55;;;;;;;6.25;2.75;;;;;;;15.20;84.44;95804.09;5012795;28;20493;-73
2021/07/14 06:39:21;;;;;;;5.00;2.72;;;;;;;15.20;84.06;95821.34;5012006;28;20563;-74
2021/07/14 06:41:48;;;;;;;7.13;3.00;;;;;;;15.18;83.02;95823.63;5013397;28;20050;-73
2021/07/14 06:44:15;;;;;;;4.72;2.50;;;;;;;15.20;83.26;95815.84;5012708;28;20476;-74
2021/07/14 06:46:41;;;;;;;7.20;1.95;;;;;;;15.24;83.11;95822.19;5013176;28;20044;-74
2021/07/14 06:49:08;;;;;;;5.57;2.38;;;;;;;15.23;82.07;95817.06;5012747;28;20050;-74
2021/07/14 06:51:35;;;;;;;3.58;2.00;;;;;;;15.21;82.42;95822.91;5012961;28;20046;-73
2021/07/14 06:54:02;;;;;;;5.82;2.50;;;;;;;15.19;83.14;95825.25;5012709;28;20046;-72
2021/07/14 06:56:28;;;;;;;4.35;2.80;;;;;;;15.18;83.32;95823.63;5012989;28;20053;-74
2021/07/14 06:58:55;;;;;;;3.50;2.15;;;;;;;15.19;82.56;95829.91;5013090;28;20050;-73
2021/07/14 07:01:21;;;;;;;5.32;2.10;;;;;;;15.16;82.27;95823.22;5012396;28;20050;-74
2021/07/14 07:03:48;;;;;;;4.53;2.47;;;;;;;15.18;82.78;95829.13;5012885;28;20057;-73
2021/07/14 07:06:14;;;;;;;13.32;3.20;;;;;;;15.25;83.60;95823.00;5011663;28;20486;-74
2021/07/14 07:08:42;;;;;;;5.40;2.55;;;;;;;15.19;82.92;95819.75;5012594;28;20746;-74
2021/07/14 07:11:08;;;;;;;6.25;2.60;;;;;;;15.21;82.79;95819.38;5012226;28;20053;-73
2021/07/14 07:13:35;;;;;;;6.13;2.70;;;;;;;15.28;83.64;95825.81;5012691;28;20058;-74
2021/07/14 07:16:03;;;;;;;6.32;2.95;;;;;;;15.27;84.26;95826.97;5012355;28;20042;-74
2021/07/14 07:18:30;;;;;;;7.03;3.03;;;;;;;15.35;84.81;95828.72;5011919;28;20042;-74
2021/07/14 07:20:58;;;;;;;5.60;2.72;;;;;;;15.42;84.05;95832.75;5012611;28;20050;-73
2021/07/14 07:23:24;;;;;;;5.97;3.53;;;;;;;15.39;84.19;95826.81;5012140;28;20056;-74
2021/07/14 07:25:54;;;;;;;5.53;3.45;;;;;;;15.48;84.73;95821.09;5012570;28;20042;-73
2021/07/14 07:28:22;;;;;;;5.15;3.70;;;;;;;15.55;84.71;95821.22;5011947;28;20077;-74
2021/07/14 07:30:49;;;;;;;7.15;3.50;;;;;;;15.56;83.16;95825.59;5012544;28;20133;-74
2021/07/14 07:33:15;;;;;;;6.25;3.33;;;;;;;15.56;83.12;95830.28;5011676;28;20049;-74
2021/07/14 07:35:44;;;;;;;7.43;3.80;;;;;;;15.55;84.03;95823.19;5011788;28;20042;-74
2021/07/14 07:38:11;;;;;;;4.82;2.97;;;;;;;15.59;84.13;95826.81;5011619;28;20128;-74
2021/07/14 07:40:38;;;;;;;5.82;3.05;;;;;;;15.58;83.03;95830.72;5012304;28;20046;-74
2021/07/14 07:43:05;;;;;;;7.22;2.92;;;;;;;15.58;83.48;95836.97;5011764;28;20100;-74
2021/07/14 07:45:33;;;;;;;7.30;3.60;;;;;;;15.59;84.26;95832.28;5011940;28;20041;-74
2021/07/14 07:47:59;;;;;;;5.63;3.50;;;;;;;15.60;84.26;95837.41;5012016;28;20072;-74
2021/07/14 07:50:26;;;;;;;5.30;3.45;;;;;;;15.67;84.74;95839.53;5011251;28;20042;-73
2021/07/14 07:52:52;;;;;;;6.50;3.00;;;;;;;15.69;82.42;95847.41;5012065;28;20037;-74
2021/07/14 07:55:19;;;;;;;6.13;3.30;;;;;;;15.69;81.58;95847.41;5011615;28;20054;-74
2021/07/14 07:57:45;;;;;;;7.63;3.38;;;;;;;15.65;82.79;95848.13;5012004;28;20049;-74
2021/07/14 08:00:16;;;;;;;6.57;3.65;;;;;;;15.75;83.73;95854.19;5011575;28;20066;-73
2021/07/14 08:02:43;;;;;;;6.82;4.05;;;;;;;15.73;81.59;95854.56;5012009;28;20046;-74
2021/07/14 08:05:11;;;;;;;6.43;4.18;;;;;;;15.77;82.21;95855.44;5011050;28;20054;-74
2021/07/14 08:07:37;;;;;;;5.45;4.30;;;;;;;15.79;81.52;95861.34;5011759;28;20042;-73
2021/07/14 08:10:05;;;;;;;9.75;4.03;;;;;;;15.75;81.38;95857.72;5011433;28;20053;-73
2021/07/14 08:12:31;;;;;;;5.63;3.85;;;;;;;15.79;81.96;95855.84;5011566;28;20052;-73
2021/07/14 08:14:58;;;;;;;6.47;4.28;;;;;;;15.84;82.83;95854.75;5011633;28;20057;-74
2021/07/14 08:17:26;;;;;;;7.20;3.90;;;;;;;15.95;82.81;95843.97;5011220;28;20050;-73
2021/07/14 08:19:54;;;;;;;9.85;4.63;;;;;;;16.08;81.53;95845.41;5011593;28;20049;-74
2021/07/14 08:22:20;;;;;;;5.85;3.75;;;;;;;16.21;81.18;95841.28;5011312;28;20398;-73
2021/07/14 08:24:47;;;;;;;6.55;4.57;;;;;;;16.36;82.83;95843.13;5011599;28;20129;-74
2021/07/14 08:27:13;;;;;;;4.50;3.83;;;;;;;16.47;81.45;95848.78;5011127;28;20054;-74
2021/07/14 08:29:40;;;;;;;6.75;4.30;;;;;;;16.53;81.47;95852.00;5011737;28;20050;-71
2021/07/14 08:32:07;;;;;;;5.45;4.20;;;;;;;16.56;81.38;95862.28;5011096;28;20049;-73
2021/07/14 08:34:35;;;;;;;9.32;3.28;;;;;;;16.59;78.74;95856.03;5011160;28;20049;-74
2021/07/14 08:37:01;;;;;;;7.60;4.20;;;;;;;16.64;79.08;95852.97;5011454;28;20111;-74
2021/07/14 08:39:28;;;;;;;3.55;3.13;;;;;;;16.75;78.28;95856.69;5010700;28;20038;-73
2021/07/14 08:41:57;;;;;;;5.47;3.63;;;;;;;16.79;77.69;95854.81;5011515;28;20054;-74
2021/07/14 08:44:25;;;;;;;5.28;3.53;;;;;;;16.88;78.40;95862.81;5010718;28;20053;-73
2021/07/14 08:46:52;;;;;;;5.97;3.33;;;;;;;16.92;78.42;95858.94;5011543;28;20053;-73
2021/07/14 08:49:18;;;;;;;4.53;3.08;;;;;;;16.91;75.33;95862.88;5010772;28;20053;-74
2021/07/14 08:51:47;;;;;;;3.72;3.22;;;;;;;16.96;77.70;95861.72;5011460;28;20046;-74
2021/07/14 08:54:13;;;;;;;5.72;3.45;;;;;;;16.98;76.92;95864.13;5010833;28;20531;-74
2021/07/14 08:56:40;;;;;;;6.40;3.53;;;;;;;17.02;76.77;95856.69;5011345;28;20497;-73
2021/07/14 08:59:06;;;;;;;6.03;3.10;;;;;;;17.06;76.96;95863.03;5010906;28;20069;-73
2021/07/14 09:01:33;;;;;;;5.15;3.70;;;;;;;17.06;77.21;95866.59;5012882;28;20383;-74
2021/07/14 09:04:00;;;;;;;5.88;3.95;;;;;;;17.01;78.03;95855.13;5014789;28;20433;-74
2021/07/14 09:06:26;;;;;;;5.28;3.63;;;;;;;17.06;78.34;95857.53;5014711;28;20041;-73
2021/07/14 09:08:54;;;;;;;5.53;3.40;;;;;;;17.17;79.11;95863.97;5015050;28;20052;-73
2021/07/14 09:11:21;;;;;;;5.25;3.10;;;;;;;17.24;79.43;95868.81;5014567;28;20052;-74
2021/07/14 09:13:47;;;;;;;8.02;3.65;;;;;;;17.26;78.97;95875.50;5014987;28;20057;-73
2021/07/14 09:16:32;;;;;;;5.32;2.83;;;;;;;17.30;75.22;95876.34;5014399;28;20050;-73
2021/07/14 09:19:12;;;;;;;7.38;3.00;;;;;;;17.32;75.65;95882.28;5014860;28;20513;-73
2021/07/14 09:21:40;;;;;;;7.22;3.20;;;;;;;17.31;75.64;95885.41;5014718;28;20037;-73
2021/07/14 09:27:04;;;;;;;5.97;3.88;;;;;;;17.31;75.87;95888.94;5116314;27;20384;-72
2021/07/14 09:29:31;;;;;;;7.63;3.42;;;;;;;17.35;75.32;95891.75;5100791;28;20387;-72
2021/07/14 09:31:58;;;;;;;3.67;2.90;;;;;;;17.37;76.61;95898.47;5108841;28;20062;-71
2021/07/14 09:34:27;;;;;;;5.53;2.80;;;;;;;17.37;77.08;95895.72;5114390;27;20043;-72
2021/07/14 09:36:57;;;;;;;6.95;3.20;;;;;;;17.36;76.89;95894.13;5129265;28;20050;-72
2021/07/14 09:39:35;;;;;;;4.50;2.63;;;;;;;17.37;75.22;95887.44;5128919;28;20062;-72
2021/07/14 09:42:06;;;;;;;4.50;3.00;;;;;;;17.41;75.26;95893.00;5129140;28;20059;-71
2021/07/14 09:44:32;;;;;;;4.63;2.80;;;;;;;17.37;75.94;95901.22;5128905;28;20043;-74
2021/07/14 09:47:13;;;;;;;6.20;2.78;;;;;;;17.42;74.57;95892.63;5129154;28;20047;-72
2021/07/14 09:49:40;;;;;;;5.60;3.28;;;;;;;17.44;76.22;95890.31;5129225;28;20035;-71
2021/07/14 09:52:09;;;;;;;8.25;3.15;;;;;;;17.45;76.29;95897.41;5128491;28;20055;-72
2021/07/14 09:54:35;;;;;;;6.97;3.08;;;;;;;17.51;75.81;95897.88;5128985;28;20051;-71
2021/07/14 09:57:10;;;;;;;8.35;3.00;;;;;;;17.53;76.69;95889.22;5128372;28;20055;-72
2021/07/14 09:59:37;;;;;;;4.93;3.08;;;;;;;17.52;76.26;95890.41;5128965;28;20047;-72
2021/07/14 10:02:04;;;;;;;8.55;2.90;;;;;;;17.53;75.80;95887.25;5128257;28;20391;-71
2021/07/14 10:04:33;;;;;;;8.45;3.28;;;;;;;17.61;76.98;95888.94;5128372;28;20418;-73
2021/07/14 10:07:07;;;;;;;4.28;2.97;;;;;;;17.68;74.19;95889.03;5128717;28;20493;-73
2021/07/14 10:09:33;;;;;;;8.38;2.40;;;;;;;17.75;74.38;95888.38;5128704;28;20058;-72
2021/07/14 10:12:32;;;;;;;4.07;2.90;;;;;;;17.76;73.68;95884.44;5128511;28;20050;-71
2021/07/14 10:15:20;;;;;;;6.50;2.70;;;;;;;17.69;73.60;95884.31;5128497;28;20493;-71
2021/07/14 10:17:48;;;;;;;7.22;3.08;;;;;;;17.74;75.97;95884.78;5128409;28;20036;-72
2021/07/14 10:20:35;;;;;;;4.93;3.67;;;;;;;17.82;75.79;95887.66;5127981;28;20043;-72
2021/07/14 10:23:04;;;;;;;4.00;3.00;;;;;;;17.91;76.14;95885.41;5128381;28;20646;-73
2021/07/14 10:25:32;;;;;;;5.03;3.00;;;;;;;18.04;74.35;95883.16;5127809;27;20549;-71
2021/07/14 10:28:00;;;;;;;6.10;3.50;;;;;;;18.12;76.42;95880.13;5128434;28;20043;-72
2021/07/14 10:30:29;;;;;;;5.63;3.00;;;;;;;18.20;73.42;95879.00;5127693;28;20521;-72
2021/07/14 10:32:57;;;;;;;7.25;2.80;;;;;;;18.26;73.54;95884.94;5128240;28;20047;-74
2021/07/14 10:35:26;;;;;;;4.47;2.67;;;;;;;18.31;71.87;95870.84;5126588;28;20395;-72
2021/07/14 10:37:54;;;;;;;4.63;2.90;;;;;;;18.39;73.84;95869.75;5117340;28;20051;-72
2021/07/14 10:40:22;;;;;;;7.50;3.50;;;;;;;18.45;73.72;95882.00;5113899;28;20514;-72
2021/07/14 10:42:51;;;;;;;8.00;2.90;;;;;;;18.51;72.08;95891.50;5114198;28;20051;-73
2021/07/14 10:45:19;;;;;;;5.32;2.58;;;;;;;18.50;71.25;95889.91;5113791;28;20406;-72
2021/07/14 10:47:48;;;;;;;3.67;2.53;;;;;;;18.50;69.29;95884.41;5114128;28;20043;-72
2021/07/14 10:50:17;;;;;;;6.15;2.70;;;;;;;18.55;72.56;95885.22;5113596;28;20043;-72
2021/07/14 10:52:45;;;;;;;3.63;2.67;;;;;;;18.62;71.87;95893.56;5114209;28;20047;-73
2021/07/14 10:55:17;;;;;;;5.38;2.60;;;;;;;18.74;73.55;95893.28;5113655;28;20051;-73
2021/07/14 10:57:43;;;;;;;2.72;2.17;;;;;;;18.86;71.14;95898.53;5114152;28;20063;-73
2021/07/14 11:00:11;;;;;;;4.28;2.42;;;;;;;18.93;68.74;95890.28;5113487;28;20048;-73
2021/07/14 11:02:40;;;;;;;6.15;2.70;;;;;;;18.98;67.97;95881.66;5113833;28;20043;-73
2021/07/14 11:05:09;;;;;;;5.20;2.70;;;;;;;18.98;69.62;95873.38;5112522;28;20443;-72
2021/07/14 11:07:43;;;;;;;3.88;2.50;;;;;;;19.00;69.17;95873.78;5113761;28;20039;-74
2021/07/14 11:10:30;;;;;;;3.88;2.42;;;;;;;19.00;69.99;95862.75;5113404;28;20047;-73
2021/07/14 11:12:57;;;;;;;4.78;2.60;;;;;;;19.16;71.61;95864.41;5113693;28;20406;-73
2021/07/14 11:15:32;;;;;;;7.30;2.55;;;;;;;19.29;69.58;95871.97;5113072;28;20122;-73
2021/07/14 11:17:59;;;;;;;4.90;2.50;;;;;;;19.46;70.66;95867.72;5113645;28;20410;-73
2021/07/14 11:20:39;;;;;;;4.18;2.47;;;;;;;19.49;69.42;95872.50;5113231;28;20051;-73
2021/07/14 11:23:18;;;;;;;3.88;2.88;;;;;;;19.60;69.45;95877.28;5113077;28;20048;-72
2021/07/14 11:25:50;;;;;;;5.45;2.75;;;;;;;19.65;69.09;95886.00;5113337;28;20048;-72
2021/07/14 11:28:18;;;;;;;4.32;2.50;;;;;;;19.59;68.89;95881.22;5112926;28;20379;-72
2021/07/14 11:30:47;;;;;;;5.40;2.78;;;;;;;19.51;69.49;95886.69;5113099;28;20039;-73
2021/07/14 11:33:22;;;;;;;4.32;3.17;;;;;;;19.45;69.61;95884.69;5112885;28;20054;-73
2021/07/14 11:35:57;;;;;;;4.28;2.60;;;;;;;19.42;69.23;95883.50;5112378;28;20051;-72
2021/07/14 11:38:26;;;;;;;4.10;2.90;;;;;;;19.31;69.36;95893.69;5112951;28;20047;-72
2021/07/14 11:40:55;;;;;;;4.32;3.53;;;;;;;19.20;69.89;95877.06;5113042;28;20058;-72
2021/07/14 11:43:24;;;;;;;7.07;3.47;;;;;;;19.15;70.22;95873.88;5112596;28;20131;-72
2021/07/14 11:45:53;;;;;;;4.25;2.88;;;;;;;19.11;70.10;95873.06;5112989;28;20039;-73
2021/07/14 11:48:32;;;;;;;7.65;2.83;;;;;;;19.11;71.05;95873.06;5111525;28;20051;-73